Time;durP1;ratioP1;P1;durP2;ratioP2;P2;SDS_P1;SDS_P2;PMS_P1;PMS_P2;Temp;Humidity;BMP_temperature;BMP_pressure;BME280_temperature;BME280_humidity;BME280_pressure;Samples;Min_cycle;Max_cycle;Signal;HPM_P1;HPM_P2
2024/03/11 00:02:08;;;;;;;;;;;;;;;11.05;51.10;98981.88;4977622;27;98080;-73
2024/03/11 00:04:35;;;;;;;;;;;;;;;11.05;50.96;98981.88;4982033;27;98197;-72
2024/03/11 00:07:08;;;;;;;;;;;;;;;11.04;50.87;98988.34;4988940;27;98305;-73
2024/03/11 00:09:44;;;;;;;;;;;;;;;11.02;51.18;98979.78;5001199;27;97967;-72
2024/03/11 00:12:10;;;;;;;;;;;;;;;11.00;51.24;98980.09;4972978;27;98782;-73
2024/03/11 00:14:40;;;;;;;;;;;;;;;11.00;51.08;98982.78;4965879;27;99242;-72
2024/03/11 00:17:08;;;;;;;;;;;;;;;10.99;51.12;98985.78;4960014;27;98096;-73
2024/03/11 00:19:35;;;;;;;;;;;;;;;10.98;51.13;98976.91;4978926;27;98176;-73
2024/03/11 00:22:02;;;;;;;;;;;;;;;10.97;51.17;98974.53;5000197;27;98080;-74
2024/03/11 00:24:29;;;;;;;;;;;;;;;10.97;51.12;98969.13;4975476;27;98904;-72
2024/03/11 00:26:59;;;;;;;;;;;;;;;10.96;51.12;98964.81;4979454;27;98858;-73
2024/03/11 00:29:25;;;;;;;;;;;;;;;10.94;50.98;98961.66;4968336;27;102544;-73
2024/03/11 00:31:53;;;;;;;;;;;;;;;10.94;51.32;98957.03;4989298;27;98082;-75
2024/03/11 00:34:20;;;;;;;;;;;;;;;10.93;50.91;98966.25;4969990;27;98501;-73
2024/03/11 00:36:48;;;;;;;;;;;;;;;10.93;51.13;98963.53;4983590;27;99159;-73
2024/03/11 00:39:15;;;;;;;;;;;;;;;10.92;51.25;98971.91;4983816;27;98467;-73
2024/03/11 00:41:43;;;;;;;;;;;;;;;10.91;50.81;98971.13;4985190;27;98038;-74
2024/03/11 00:44:10;;;;;;;;;;;;;;;10.90;51.23;98969.53;4982626;27;98235;-73
2024/03/11 00:46:37;;;;;;;;;;;;;;;10.90;50.90;98968.75;4968871;27;98292;-72
2024/03/11 00:49:03;;;;;;;;;;;;;;;10.89;51.06;98973.34;4986982;27;100106;-72
2024/03/11 00:51:31;;;;;;;;;;;;;;;10.88;50.82;98970.94;4984757;27;99333;-73
2024/03/11 00:54:01;;;;;;;;;;;;;;;10.89;51.23;98976.03;4971230;27;98233;-74
2024/03/11 00:56:27;;;;;;;;;;;;;;;10.88;51.07;98971.72;4983888;27;100069;-74
2024/03/11 00:58:54;;;;;;;;;;;;;;;10.88;51.29;98970.94;4962666;27;98772;-72
2024/03/11 01:01:20;;;;;;;;;;;;;;;10.87;51.26;98975.53;4995364;27;98256;-72
2024/03/11 01:03:47;;;;;;;;;;;;;;;10.88;51.21;98970.94;4970731;27;98024;-73
2024/03/11 01:06:17;;;;;;;;;;;;;;;10.87;51.23;98966.66;4968596;27;98130;-73
2024/03/11 01:08:47;;;;;;;;;;;;;;;10.87;50.84;98963.97;4980949;27;98099;-73
2024/03/11 01:11:14;;;;;;;;;;;;;;;10.86;51.47;98973.16;4989237;27;99847;-73
2024/03/11 01:13:40;;;;;;;;;;;;;;;10.82;50.94;98960.28;4982177;27;98408;-72
2024/03/11 01:16:10;;;;;;;;;;;;;;;10.81;51.21;98966.78;4969126;27;98190;-73
2024/03/11 01:18:36;;;;;;;;;;;;;;;10.78;50.87;98964.69;4965371;27;99984;-72
2024/03/11 01:21:03;;;;;;;;;;;;;;;10.76;51.28;98968.78;4965883;27;97994;-72
2024/03/11 01:23:30;;;;;;;;;;;;;;;10.75;50.97;98970.69;4949806;28;97967;-72
2024/03/11 01:25:56;;;;;;;;;;;;;;;10.74;51.38;98965.59;4954118;27;98033;-72
2024/03/11 01:28:22;;;;;;;;;;;;;;;10.74;51.30;98957.53;4941876;27;100419;-72
2024/03/11 01:30:49;;;;;;;;;;;;;;;10.72;51.11;98955.13;4947162;27;98082;-73
2024/03/11 01:33:18;;;;;;;;;;;;;;;10.72;51.35;98960.50;4963899;27;99287;-73
2024/03/11 01:35:45;;;;;;;;;;;;;;;10.70;50.97;98957.34;4950437;27;98379;-72
2024/03/11 01:38:12;;;;;;;;;;;;;;;10.71;51.05;98963.50;4966145;27;99121;-72
2024/03/11 01:40:39;;;;;;;;;;;;;;;10.70;51.24;98965.41;4988406;27;98120;-72
2024/03/11 01:43:05;;;;;;;;;;;;;;;10.69;51.41;98958.44;4946776;27;98369;-73
2024/03/11 01:45:32;;;;;;;;;;;;;;;10.68;51.27;98959.53;4984763;27;99998;-72
2024/03/11 01:48:00;;;;;;;;;;;;;;;10.67;50.96;98955.25;4974872;27;98500;-73
2024/03/11 01:50:28;;;;;;;;;;;;;;;10.67;51.23;98957.94;4965965;27;100512;-73
2024/03/11 01:53:00;;;;;;;;;;;;;;;10.67;51.02;98957.13;4950084;27;98087;-72
2024/03/11 01:55:27;;;;;;;;;;;;;;;10.66;51.09;98958.25;4950221;27;98303;-72
2024/03/11 01:57:54;;;;;;;;;;;;;;;10.66;51.36;98969.03;4967630;27;98018;-72
2024/03/11 02:00:24;;;;;;;;;;;;;;;10.66;51.00;98974.41;4944599;27;98309;-72
2024/03/11 02:02:53;;;;;;;;;;;;;;;10.65;50.96;98970.94;4952735;27;97952;-72
2024/03/11 02:05:28;;;;;;;;;;;;;;;10.64;50.86;98968.53;4965346;27;99803;-73
2024/03/11 02:07:59;;;;;;;;;;;;;;;10.62;51.44;98949.97;4989980;27;99437;-72
2024/03/11 02:10:27;;;;;;;;;;;;;;;10.62;51.07;98949.97;4959192;27;98417;-72
2024/03/11 02:12:55;;;;;;;;;;;;;;;10.62;51.23;98951.88;4982225;27;98182;-72
2024/03/11 02:15:22;;;;;;;;;;;;;;;10.60;51.23;98960.25;4965528;27;98296;-72
2024/03/11 02:17:48;;;;;;;;;;;;;;;10.60;51.22;98964.84;4945067;27;98484;-72
2024/03/11 02:20:16;;;;;;;;;;;;;;;10.60;51.24;98970.22;4984962;27;100546;-72
2024/03/11 02:22:48;;;;;;;;;;;;;;;10.58;50.99;98965.16;4951057;27;97955;-72
2024/03/11 02:25:21;;;;;;;;;;;;;;;10.57;51.15;98966.22;4983194;27;99127;-72
2024/03/11 02:27:51;;;;;;;;;;;;;;;10.55;51.45;98963.84;4971841;27;98123;-72
2024/03/11 02:30:18;;;;;;;;;;;;;;;10.55;51.43;98969.25;4982484;27;98122;-72
2024/03/11 02:32:45;;;;;;;;;;;;;;;10.54;51.19;98974.94;4952427;27;98324;-72
2024/03/11 02:35:12;;;;;;;;;;;;;;;10.53;51.01;98968.75;4970538;27;97860;-72
2024/03/11 02:37:38;;;;;;;;;;;;;;;10.52;51.04;98980.63;4966933;27;100058;-72
2024/03/11 02:40:09;;;;;;;;;;;;;;;10.52;51.23;98995.97;4961782;27;99116;-72
2024/03/11 02:42:37;;;;;;;;;;;;;;;10.50;50.94;98998.19;4947701;27;99037;-73
2024/03/11 02:45:11;;;;;;;;;;;;;;;10.49;50.93;99010.88;4968473;27;99097;-72
2024/03/11 02:47:38;;;;;;;;;;;;;;;10.48;51.03;99014.66;4968142;27;98721;-73
2024/03/11 02:50:06;;;;;;;;;;;;;;;10.47;51.24;99010.38;4947135;27;98877;-72
2024/03/11 02:52:36;;;;;;;;;;;;;;;10.46;51.32;99016.84;4945406;27;98652;-72
2024/03/11 02:55:03;;;;;;;;;;;;;;;10.46;51.41;99010.69;4950757;27;98185;-72
2024/03/11 02:57:32;;;;;;;;;;;;;;;10.45;51.20;98999.09;4953593;27;98170;-72
2024/03/11 02:59:58;;;;;;;;;;;;;;;10.46;51.56;98999.91;4949276;28;99712;-72
2024/03/11 03:02:25;;;;;;;;;;;;;;;10.45;51.27;98999.09;4950439;27;98615;-72
2024/03/11 03:04:52;;;;;;;;;;;;;;;10.45;51.53;99001.81;4963725;27;98273;-73
2024/03/11 03:07:19;;;;;;;;;;;;;;;10.46;51.12;98997.22;4949365;28;98505;-73
2024/03/11 03:09:45;;;;;;;;;;;;;;;10.45;50.89;98999.09;4966948;27;98223;-73
2024/03/11 03:12:12;;;;;;;;;;;;;;;10.45;50.97;99014.44;4951456;27;99161;-72
2024/03/11 03:14:40;;;;;;;;;;;;;;;10.46;50.88;99016.06;4955997;27;98075;-73
2024/03/11 03:17:09;;;;;;;;;;;;;;;10.45;50.86;99017.16;4980884;27;99219;-73
2024/03/11 03:19:36;;;;;;;;;;;;;;;10.46;51.46;99014.16;4975218;27;98564;-73
2024/03/11 03:22:03;;;;;;;;;;;;;;;10.45;51.25;99022.53;4977576;27;98221;-72
2024/03/11 03:24:29;;;;;;;;;;;;;;;10.45;51.33;99022.53;4970541;28;98657;-73
2024/03/11 03:26:56;;;;;;;;;;;;;;;10.44;51.12;99016.34;4954921;28;101776;-72
2024/03/11 03:29:24;;;;;;;;;;;;;;;10.43;51.15;99025.53;4961149;27;97821;-72
2024/03/11 03:31:51;;;;;;;;;;;;;;;10.43;50.95;99036.31;4980502;27;98807;-73
2024/03/11 03:34:19;;;;;;;;;;;;;;;10.41;51.62;99035.81;4981856;27;98704;-73
2024/03/11 03:36:47;;;;;;;;;;;;;;;10.41;51.33;99045.78;4970580;27;98001;-73
2024/03/11 03:39:14;;;;;;;;;;;;;;;10.40;50.98;99047.69;5009055;27;98068;-72
2024/03/11 03:41:41;;;;;;;;;;;;;;;10.40;51.55;99041.50;4992511;27;99575;-72
2024/03/11 03:44:08;;;;;;;;;;;;;;;10.42;51.55;99040.13;4988768;27;97925;-72
2024/03/11 03:46:35;;;;;;;;;;;;;;;10.47;51.55;99050.78;4986243;27;97948;-72
2024/03/11 03:49:01;;;;;;;;;;;;;;;10.52;51.24;99058.75;4985457;27;98384;-72
2024/03/11 03:51:28;;;;;;;;;;;;;;;10.58;51.15;99062.16;4985642;27;97926;-73
2024/03/11 03:53:56;;;;;;;;;;;;;;;10.62;51.43;99060.44;4973529;27;97993;-72
2024/03/11 03:56:25;;;;;;;;;;;;;;;10.66;51.20;99060.66;4966196;27;98082;-72
2024/03/11 03:58:52;;;;;;;;;;;;;;;10.68;51.29;99061.94;4988401;27;98152;-73
2024/03/11 04:01:19;;;;;;;;;;;;;;;10.72;51.24;99064.81;4985423;27;98483;-72
2024/03/11 04:03:45;;;;;;;;;;;;;;;10.74;51.26;99068.03;4984614;27;99683;-72
2024/03/11 04:06:12;;;;;;;;;;;;;;;10.74;51.58;99066.13;4967595;27;98169;-73
2024/03/11 04:08:38;;;;;;;;;;;;;;;10.76;51.64;99071.19;4988194;27;98195;-72
2024/03/11 04:11:05;;;;;;;;;;;;;;;10.77;51.51;99076.31;5002683;27;98275;-72
2024/03/11 04:13:32;;;;;;;;;;;;;;;10.79;51.23;99081.38;4967558;27;99370;-72
2024/03/11 04:15:58;;;;;;;;;;;;;;;10.79;51.39;99090.25;4997397;27;98676;-72
2024/03/11 04:18:25;;;;;;;;;;;;;;;10.78;51.33;99098.66;4971676;27;99010;-72
2024/03/11 04:20:55;;;;;;;;;;;;;;;10.80;51.43;99097.25;4974513;27;98171;-72
2024/03/11 04:23:22;;;;;;;;;;;;;;;10.79;51.51;99108.34;4985409;27;103201;-72
2024/03/11 04:25:49;;;;;;;;;;;;;;;10.80;51.28;99112.63;4971647;27;98136;-72
2024/03/11 04:28:16;;;;;;;;;;;;;;;10.79;51.25;99117.22;5007471;27;98046;-72
2024/03/11 04:30:44;;;;;;;;;;;;;;;10.79;51.40;99125.31;4984507;27;98322;-72
2024/03/11 04:33:15;;;;;;;;;;;;;;;10.79;51.46;99130.69;4975283;27;98254;-72
2024/03/11 04:35:42;;;;;;;;;;;;;;;10.79;51.60;99138.78;5002735;27;98117;-72
2024/03/11 04:38:09;;;;;;;;;;;;;;;10.79;51.26;99136.09;4970426;27;97970;-73
2024/03/11 04:40:39;;;;;;;;;;;;;;;10.79;51.13;99148.78;4983863;27;99851;-72
2024/03/11 04:43:06;;;;;;;;;;;;;;;10.78;51.66;99142.59;5001449;27;98562;-73
2024/03/11 04:45:32;;;;;;;;;;;;;;;10.78;51.30;99155.28;4983543;27;102353;-72
2024/03/11 04:48:00;;;;;;;;;;;;;;;10.78;51.65;99155.28;4985211;27;98112;-72
2024/03/11 04:50:27;;;;;;;;;;;;;;;10.78;51.56;99166.84;5000810;27;98206;-72
2024/03/11 04:53:06;;;;;;;;;;;;;;;10.76;51.48;99165.53;5005460;27;98668;-72
2024/03/11 04:55:33;;;;;;;;;;;;;;;10.77;51.14;99172.53;5005588;27;98268;-72
2024/03/11 04:58:00;;;;;;;;;;;;;;;10.77;51.27;99177.94;4984066;27;99304;-72
2024/03/11 05:00:28;;;;;;;;;;;;;;;10.76;51.35;99176.31;4999038;27;98254;-72
2024/03/11 05:02:58;;;;;;;;;;;;;;;10.78;51.65;99182.22;4966159;27;98326;-72
2024/03/11 05:05:26;;;;;;;;;;;;;;;10.76;51.45;99176.31;4970126;27;99169;-73
2024/03/11 05:07:53;;;;;;;;;;;;;;;10.76;51.25;99187.09;4982557;27;101538;-73
2024/03/11 05:10:20;;;;;;;;;;;;;;;10.77;51.58;99192.22;4985096;27;98216;-72
2024/03/11 05:12:50;;;;;;;;;;;;;;;10.77;51.44;99191.41;4978317;27;99392;-72
2024/03/11 05:15:17;;;;;;;;;;;;;;;10.77;51.18;99191.41;4983538;27;98183;-71
2024/03/11 05:17:44;;;;;;;;;;;;;;;10.77;51.26;99203.00;4956267;27;98616;-72
2024/03/11 05:20:14;;;;;;;;;;;;;;;10.77;51.51;99200.28;4945997;28;97848;-73
2024/03/11 05:22:41;;;;;;;;;;;;;;;10.78;51.17;99203.78;4949702;27;98938;-72
2024/03/11 05:25:20;;;;;;;;;;;;;;;10.77;51.41;99208.38;4964602;27;99880;-72
2024/03/11 05:27:48;;;;;;;;;;;;;;;10.79;51.55;99205.38;4967774;27;98392;-73
2024/03/11 05:30:15;;;;;;;;;;;;;;;10.79;51.29;99208.06;4956568;27;98215;-72
2024/03/11 05:32:42;;;;;;;;;;;;;;;10.79;51.41;99216.16;4963275;27;98158;-73
2024/03/11 05:35:08;;;;;;;;;;;;;;;10.79;51.44;99230.44;4964031;27;98966;-72
2024/03/11 05:37:34;;;;;;;;;;;;;;;10.80;50.92;99233.91;4965906;27;98190;-72
2024/03/11 05:40:05;;;;;;;;;;;;;;;10.80;51.19;99226.63;4957601;27;98364;-72
2024/03/11 05:42:33;;;;;;;;;;;;;;;10.80;51.48;99231.22;4962596;27;98549;-73
2024/03/11 05:45:01;;;;;;;;;;;;;;;10.82;51.60;99237.13;4947688;27;98626;-73
2024/03/11 05:47:29;;;;;;;;;;;;;;;10.84;51.18;99236.81;4947176;27;99133;-72
2024/03/11 05:49:55;;;;;;;;;;;;;;;10.84;51.54;99240.31;4962219;27;98214;-72
2024/03/11 05:52:25;;;;;;;;;;;;;;;10.85;51.18;99244.63;4957824;27;98312;-72
2024/03/11 05:54:52;;;;;;;;;;;;;;;10.87;51.09;99252.41;4948515;27;98949;-73
2024/03/11 05:57:23;;;;;;;;;;;;;;;10.88;51.46;99245.91;4961756;27;100037;-73
2024/03/11 05:59:52;;;;;;;;;;;;;;;10.90;51.23;99257.22;4981648;27;98198;-73
2024/03/11 06:02:20;;;;;;;;;;;;;;;10.91;51.27;99248.81;4978755;27;98188;-73
2024/03/11 06:04:47;;;;;;;;;;;;;;;10.93;51.15;99254.72;4965989;27;98139;-73
2024/03/11 06:07:17;;;;;;;;;;;;;;;10.95;51.33;99251.72;4967378;27;98158;-73
2024/03/11 06:09:43;;;;;;;;;;;;;;;10.97;51.42;99260.31;4968949;27;98717;-73
2024/03/11 06:12:10;;;;;;;;;;;;;;;10.97;51.06;99253.03;4950946;27;98320;-72
2024/03/11 06:14:37;;;;;;;;;;;;;;;11.00;51.11;99252.44;4962156;27;97957;-72
2024/03/11 06:17:06;;;;;;;;;;;;;;;11.03;51.27;99259.91;4962429;27;98167;-73
2024/03/11 06:19:33;;;;;;;;;;;;;;;11.06;51.38;99263.91;4969694;27;97867;-73
2024/03/11 06:21:59;;;;;;;;;;;;;;;11.10;51.31;99267.59;4976528;27;98101;-73
2024/03/11 06:24:28;;;;;;;;;;;;;;;11.11;50.98;99274.59;4979586;27;98874;-72
2024/03/11 06:26:58;;;;;;;;;;;;;;;11.15;50.95;99272.88;4969672;27;98851;-73
2024/03/11 06:29:28;;;;;;;;;;;;;;;11.18;50.92;99282.28;4958562;27;98034;-72
2024/03/11 06:31:55;;;;;;;;;;;;;;;11.21;51.07;99279.78;4968285;27;98176;-73
2024/03/11 06:34:23;;;;;;;;;;;;;;;11.24;51.05;99292.69;4980596;27;98347;-73
2024/03/11 06:36:50;;;;;;;;;;;;;;;11.29;51.21;99289.09;4982126;27;99617;-73
2024/03/11 06:39:18;;;;;;;;;;;;;;;11.32;50.95;99293.88;4966865;27;100075;-72
2024/03/11 06:41:46;;;;;;;;;;;;;;;11.37;51.04;99299.19;4965949;27;98252;-73
2024/03/11 06:44:12;;;;;;;;;;;;;;;11.41;50.92;99297.47;4987953;27;98585;-73
2024/03/11 06:46:39;;;;;;;;;;;;;;;11.45;51.17;99303.88;4994734;27;98408;-73
2024/03/11 06:49:05;;;;;;;;;;;;;;;11.51;51.06;99313.47;4980997;27;98120;-72
2024/03/11 06:51:32;;;;;;;;;;;;;;;11.56;51.07;99315.25;4969337;27;98133;-72
2024/03/11 06:54:01;;;;;;;;;;;;;;;11.58;50.97;99328.44;4982869;27;98037;-72
2024/03/11 06:56:30;;;;;;;;;;;;;;;11.61;51.14;99335.94;4970976;27;103332;-72
2024/03/11 06:58:58;;;;;;;;;;;;;;;11.65;50.76;99334.25;4973362;27;98209;-73
2024/03/11 07:01:29;;;;;;;;;;;;;;;11.70;50.68;99328.72;4983456;27;99874;-72
2024/03/11 07:03:55;;;;;;;;;;;;;;;11.76;51.16;99335.63;4970197;27;98548;-72
2024/03/11 07:06:25;;;;;;;;;;;;;;;11.82;50.87;99337.09;4951433;27;98344;-72
2024/03/11 07:08:51;;;;;;;;;;;;;;;11.88;50.76;99349.44;5020111;27;98167;-72
2024/03/11 07:11:17;;;;;;;;;;;;;;;11.93;50.87;99348.53;5002024;27;98446;-72
2024/03/11 07:13:44;;;;;;;;;;;;;;;11.96;50.74;99353.34;4987878;27;98105;-73
2024/03/11 07:16:12;;;;;;;;;;;;;;;11.99;50.89;99356.22;4983040;27;99448;-72
2024/03/11 07:18:41;;;;;;;;;;;;;;;12.02;50.78;99365.59;4968839;27;98331;-72
2024/03/11 07:21:08;;;;;;;;;;;;;;;12.06;50.76;99369.31;4983123;27;98458;-72
2024/03/11 07:23:36;;;;;;;;;;;;;;;12.09;50.74;99384.91;4966728;27;98217;-72
2024/03/11 07:26:03;;;;;;;;;;;;;;;12.13;50.74;99377.00;4974740;27;98333;-72
2024/03/11 07:28:32;;;;;;;;;;;;;;;12.19;50.75;99383.91;4985582;27;98129;-73
2024/03/11 07:30:59;;;;;;;;;;;;;;;12.26;50.78;99387.78;5006910;27;99614;-72
2024/03/11 07:33:26;;;;;;;;;;;;;;;12.32;50.54;99390.38;4982428;27;98808;-73
2024/03/11 07:35:53;;;;;;;;;;;;;;;12.38;50.62;99395.38;4981397;27;98137;-73
2024/03/11 07:38:19;;;;;;;;;;;;;;;12.48;50.46;99400.53;4965588;27;98148;-74
2024/03/11 07:40:48;;;;;;;;;;;;;;;12.63;50.61;99395.88;4986472;27;97940;-72
2024/03/11 07:43:15;;;;;;;;;;;;;;;12.80;50.44;99397.91;4972135;27;99487;-72
2024/03/11 07:45:41;;;;;;;;;;;;;;;12.96;50.24;99402.63;4979478;27;97967;-72
2024/03/11 07:48:10;;;;;;;;;;;;;;;13.16;50.16;99411.34;4987294;27;97981;-73
2024/03/11 07:50:37;;;;;;;;;;;;;;;13.36;49.99;99415.44;4969383;27;97882;-72
2024/03/11 07:53:05;;;;;;;;;;;;;;;13.83;49.31;99405.78;4986466;27;98430;-73
2024/03/11 07:55:33;;;;;;;;;;;;;;;14.60;48.88;99408.97;4968059;27;97864;-72
2024/03/11 07:58:01;;;;;;;;;;;;;;;15.32;48.17;99410.91;4965244;27;99616;-73
2024/03/11 08:00:31;;;;;;;;;;;;;;;16.05;47.61;99418.16;4971618;27;98747;-72
2024/03/11 08:02:58;;;;;;;;;;;;;;;16.76;47.26;99420.06;4983572;27;97984;-72
2024/03/11 08:05:25;;;;;;;;;;;;;;;17.36;46.90;99422.19;4983231;27;102361;-73
2024/03/11 08:07:51;;;;;;;;;;;;;;;17.86;46.96;99418.41;4961977;27;97927;-73
2024/03/11 08:10:18;;;;;;;;;;;;;;;18.44;46.62;99422.91;4972782;27;98036;-72
2024/03/11 08:12:51;;;;;;;;;;;;;;;18.12;47.57;99439.88;4981138;27;99662;-73
2024/03/11 08:15:20;;;;;;;;;;;;;;;17.98;47.83;99442.16;4987100;27;98421;-73
2024/03/11 08:17:48;;;;;;;;;;;;;;;18.34;47.72;99435.06;4967660;27;98544;-73
2024/03/11 08:20:16;;;;;;;;;;;;;;;19.55;46.50;99437.69;4971273;27;98101;-72
2024/03/11 08:22:48;;;;;;;;;;;;;;;19.96;46.41;99433.63;4969439;27;97983;-72
2024/03/11 08:25:22;;;;;;;;;;;;;;;20.46;46.25;99442.19;4979380;27;99394;-72
2024/03/11 08:27:52;;;;;;;;;;;;;;;21.19;45.80;99443.31;4980846;27;98073;-72
2024/03/11 08:30:19;;;;;;;;;;;;;;;21.49;45.71;99446.22;4982901;27;97967;-72
2024/03/11 08:32:48;;;;;;;;;;;;;;;21.78;45.88;99451.03;4982499;27;99601;-72
2024/03/11 08:35:15;;;;;;;;;;;;;;;22.59;45.56;99458.13;4968643;27;99863;-72
2024/03/11 08:37:41;;;;;;;;;;;;;;;23.19;45.17;99469.13;4961693;27;98438;-73
2024/03/11 08:40:08;;;;;;;;;;;;;;;23.36;45.21;99478.72;4984645;27;98610;-72
2024/03/11 08:42:35;;;;;;;;;;;;;;;23.49;45.36;99476.47;5003645;27;98664;-72
2024/03/11 08:45:02;;;;;;;;;;;;;;;23.75;45.28;99473.63;4977672;27;98080;-72
2024/03/11 08:47:29;;;;;;;;;;;;;;;24.09;45.34;99476.25;4965066;27;98236;-72
2024/03/11 08:49:55;;;;;;;;;;;;;;;25.03;44.57;99467.34;4967121;27;101301;-73
2024/03/11 08:52:22;;;;;;;;;;;;;;;24.96;45.11;99483.88;4967983;27;98303;-72
2024/03/11 08:54:50;;;;;;;;;;;;;;;25.45;44.82;99487.97;4982784;27;98021;-72
2024/03/11 08:57:16;;;;;;;;;;;;;;;26.15;44.36;99488.44;4982451;27;98200;-71
2024/03/11 08:59:45;;;;;;;;;;;;;;;26.33;44.16;99494.75;4969092;27;98079;-72
2024/03/11 09:02:14;;;;;;;;;;;;;;;28.24;42.75;99501.69;4963524;27;98275;-72
2024/03/11 09:04:42;;;;;;;;;;;;;;;28.87;42.86;99507.00;4971419;27;98101;-72
2024/03/11 09:07:09;;;;;;;;;;;;;;;29.07;42.65;99507.16;4963756;27;98152;-73
2024/03/11 09:09:36;;;;;;;;;;;;;;;28.27;44.04;99514.72;4968232;27;98135;-73
2024/03/11 09:12:05;;;;;;;;;;;;;;;29.29;43.31;99507.69;4958874;27;98342;-72
2024/03/11 09:14:31;;;;;;;;;;;;;;;28.96;43.99;99518.34;4968509;27;99059;-72
2024/03/11 09:17:00;;;;;;;;;;;;;;;28.18;44.76;99510.84;4977201;27;115786;-73
2024/03/11 09:19:30;;;;;;;;;;;;;;;29.72;43.24;99512.66;4984857;27;98311;-72
2024/03/11 09:21:57;;;;;;;;;;;;;;;30.29;42.84;99520.84;4981369;27;98775;-72
2024/03/11 09:24:24;;;;;;;;;;;;;;;30.06;43.39;99513.28;4966269;27;98285;-73
2024/03/11 09:26:52;;;;;;;;;;;;;;;30.44;43.21;99520.59;4965754;27;98532;-73
2024/03/11 09:29:22;;;;;;;;;;;;;;;30.25;43.43;99525.69;4961259;27;98430;-73
2024/03/11 09:31:49;;;;;;;;;;;;;;;30.41;43.43;99532.56;4976358;27;98317;-72
2024/03/11 09:34:18;;;;;;;;;;;;;;;31.39;42.40;99533.84;4966641;27;97921;-72
2024/03/11 09:36:46;;;;;;;;;;;;;;;31.92;42.27;99529.06;4962365;27;97980;-72
2024/03/11 09:39:13;;;;;;;;;;;;;;;32.00;42.78;99535.25;4967453;27;98036;-71
2024/03/11 09:41:44;;;;;;;;;;;;;;;32.21;42.96;99539.50;4977415;27;98027;-70
2024/03/11 09:44:18;;;;;;;;;;;;;;;32.36;43.09;99534.34;4986077;27;98158;-70
2024/03/11 09:46:56;;;;;;;;;;;;;;;31.85;43.94;99536.81;4966817;27;98030;-70
2024/03/11 09:49:23;;;;;;;;;;;;;;;32.40;43.22;99535.84;4966929;27;98463;-71
2024/03/11 09:51:50;;;;;;;;;;;;;;;32.73;43.26;99549.72;5013937;27;98023;-70
2024/03/11 09:54:17;;;;;;;;;;;;;;;32.21;43.89;99533.94;4966434;27;101886;-70
2024/03/11 09:56:47;;;;;;;;;;;;;;;32.49;43.64;99540.78;4977926;27;98916;-70
2024/03/11 09:59:26;;;;;;;;;;;;;;;32.75;43.54;99542.47;4988634;27;98348;-70
2024/03/11 10:01:52;;;;;;;;;;;;;;;32.90;43.63;99545.66;4965162;27;98034;-70
2024/03/11 10:04:23;;;;;;;;;;;;;;;33.05;43.62;99542.47;4964980;27;98181;-70
2024/03/11 10:07:09;;;;;;;;;;;;;;;33.06;44.17;99539.25;4968682;27;99303;-70
2024/03/11 10:09:45;;;;;;;;;;;;;;;32.34;45.10;99534.78;4984972;27;98803;-70
2024/03/11 10:12:15;;;;;;;;;;;;;;;31.47;45.90;99546.38;4971917;27;99792;-70
2024/03/11 10:14:42;;;;;;;;;;;;;;;31.03;46.16;99542.91;4984714;27;98084;-70
2024/03/11 10:17:21;;;;;;;;;;;;;;;31.13;45.92;99545.94;4969948;27;98154;-71
2024/03/11 10:20:14;;;;;;;;;;;;;;;30.97;46.08;99536.28;4981121;27;97994;-72
2024/03/11 10:22:47;;;;;;;;;;;;;;;30.47;46.34;99539.22;4961580;27;98195;-72
2024/03/11 10:25:13;;;;;;;;;;;;;;;30.47;46.07;99542.78;4957404;27;98401;-72
2024/03/11 10:27:40;;;;;;;;;;;;;;;31.14;45.25;99541.91;4966260;27;97860;-71
2024/03/11 10:30:21;;;;;;;;;;;;;;;30.97;45.66;99535.50;4965169;27;98055;-72
2024/03/11 10:33:01;;;;;;;;;;;;;;;30.66;46.06;99535.69;4979815;27;97921;-72
2024/03/11 10:35:33;;;;;;;;;;;;;;;31.04;45.41;99538.91;4969328;27;99142;-72
2024/03/11 10:38:11;;;;;;;;;;;;;;;31.57;45.17;99543.81;4972819;27;98541;-71
2024/03/11 10:40:39;;;;;;;;;;;;;;;31.26;45.45;99553.16;4951995;27;98305;-71
2024/03/11 10:43:20;;;;;;;;;;;;;;;31.08;45.88;99552.75;4959792;27;98126;-71
2024/03/11 10:45:48;;;;;;;;;;;;;;;30.49;46.70;99554.22;4974082;27;98042;-72
2024/03/11 10:48:16;;;;;;;;;;;;;;;30.26;46.82;99549.50;4982932;27;97855;-72
2024/03/11 10:50:43;;;;;;;;;;;;;;;29.80;47.30;99548.22;4951209;27;99702;-72
2024/03/11 10:53:18;;;;;;;;;;;;;;;30.19;46.25;99551.63;4981937;27;99152;-72
2024/03/11 10:55:44;;;;;;;;;;;;;;;29.67;46.86;99549.19;4984983;27;98441;-72
2024/03/11 10:58:13;;;;;;;;;;;;;;;29.29;47.43;99563.97;4968065;27;98228;-72
2024/03/11 11:00:40;;;;;;;;;;;;;;;29.46;46.92;99555.81;4965213;27;98119;-71
2024/03/11 11:03:13;;;;;;;;;;;;;;;29.83;46.42;99561.25;4961659;27;99195;-71
2024/03/11 11:05:52;;;;;;;;;;;;;;;30.65;45.50;99556.34;4967998;27;98214;-72
2024/03/11 11:08:22;;;;;;;;;;;;;;;31.07;45.29;99556.75;4970377;27;98215;-71
2024/03/11 11:10:51;;;;;;;;;;;;;;;31.22;45.05;99563.59;4986164;27;98387;-71
2024/03/11 11:13:23;;;;;;;;;;;;;;;30.67;46.16;99553.13;4944861;27;98223;-71
2024/03/11 11:15:51;;;;;;;;;;;;;;;31.89;44.73;99554.22;4952890;27;99643;-72
2024/03/11 11:18:24;;;;;;;;;;;;;;;32.21;44.34;99548.66;4960110;27;98229;-72
2024/03/11 11:20:52;;;;;;;;;;;;;;;32.80;44.28;99540.38;4953354;27;99595;-72
2024/03/11 11:23:27;;;;;;;;;;;;;;;33.42;43.83;99538.19;4952272;28;99276;-70
2024/03/11 11:25:57;;;;;;;;;;;;;;;32.72;45.14;99548.94;4955941;28;98132;-71
2024/03/11 11:28:29;;;;;;;;;;;;;;;32.20;45.58;99535.16;4965908;27;98124;-71
2024/03/11 11:31:11;;;;;;;;;;;;;;;31.81;45.97;99541.66;4973553;27;98285;-71
2024/03/11 11:33:57;;;;;;;;;;;;;;;31.27;46.69;99549.16;4952678;27;98838;-71
2024/03/11 11:36:32;;;;;;;;;;;;;;;30.85;46.87;99545.28;4959852;27;98161;-71
2024/03/11 11:39:13;;;;;;;;;;;;;;;30.61;46.83;99550.06;4999610;27;99343;-71
2024/03/11 11:41:45;;;;;;;;;;;;;;;30.03;47.11;99547.47;4995664;27;98087;-71
2024/03/11 11:44:36;;;;;;;;;;;;;;;29.59;47.45;99549.31;4969045;27;100379;-71
2024/03/11 11:47:03;;;;;;;;;;;;;;;29.00;48.11;99554.41;4971031;27;98355;-71
2024/03/11 11:49:34;;;;;;;;;;;;;;;28.51;48.48;99556.47;5001205;27;98805;-71
2024/03/11 11:52:04;;;;;;;;;;;;;;;28.06;48.39;99557.25;4940390;28;98758;-72
2024/03/11 11:54:34;;;;;;;;;;;;;;;27.68;48.67;99552.72;4964400;27;98630;-71
2024/03/11 11:57:06;;;;;;;;;;;;;;;27.77;48.41;99553.09;4963211;28;98161;-71
2024/03/11 11:59:40;;;;;;;;;;;;;;;27.53;48.18;99561.09;4981431;27;98066;-71
2024/03/11 12:02:25;;;;;;;;;;;;;;;27.29;48.39;99557.28;4963750;27;97918;-72
2024/03/11 12:04:53;;;;;;;;;;;;;;;27.00;48.80;99548.28;4965796;27;98960;-71
2024/03/11 12:07:23;;;;;;;;;;;;;;;26.82;48.52;99553.06;4962400;27;98049;-71
2024/03/11 12:09:51;;;;;;;;;;;;;;;26.60;48.57;99555.09;4974164;27;98002;-72
2024/03/11 12:12:39;;;;;;;;;;;;;;;26.33;48.80;99565.72;4968136;28;98506;-71
2024/03/11 12:15:06;;;;;;;;;;;;;;;26.01;49.15;99563.75;4942391;27;97990;-71
2024/03/11 12:17:33;;;;;;;;;;;;;;;25.81;49.08;99566.09;4965119;27;98031;-71
2024/03/11 12:22:56;;;;;;;;;;;;;;;25.80;48.65;99563.75;4994385;27;98189;-71
2024/03/11 12:25:32;;;;;;;;;;;;;;;25.85;48.44;99566.88;4968641;27;98090;-71
2024/03/11 12:28:07;;;;;;;;;;;;;;;25.67;48.68;99575.13;4973017;27;98341;-71
2024/03/11 12:30:36;;;;;;;;;;;;;;;25.44;48.68;99578.19;4945348;27;97973;-71
2024/03/11 12:33:05;;;;;;;;;;;;;;;25.32;48.85;99578.56;4984766;27;98689;-71
2024/03/11 12:35:36;;;;;;;;;;;;;;;25.28;48.62;99582.47;4984256;27;99826;-71
2024/03/11 12:38:07;;;;;;;;;;;;;;;25.40;48.59;99584.88;4965604;27;98111;-71
2024/03/11 12:40:42;;;;;;;;;;;;;;;25.43;48.42;99581.34;4984276;27;98250;-71
2024/03/11 12:43:19;;;;;;;;;;;;;;;25.85;47.67;99585.41;4968547;27;100556;-71
2024/03/11 12:45:52;;;;;;;;;;;;;;;26.16;47.44;99581.13;4964155;27;98251;-71
2024/03/11 12:48:19;;;;;;;;;;;;;;;26.39;47.35;99586.25;4967613;27;98275;-71
2024/03/11 12:50:46;;;;;;;;;;;;;;;26.56;47.52;99588.25;4968918;27;98481;-71
2024/03/11 12:53:16;;;;;;;;;;;;;;;26.75;47.27;99584.28;4981995;27;98201;-71
2024/03/11 12:55:43;;;;;;;;;;;;;;;26.95;47.21;99592.13;4987751;27;97936;-71
2024/03/11 12:58:14;;;;;;;;;;;;;;;27.12;47.20;99591.34;4968192;27;101087;-71